createdAt,value
2019-06-27T00:01:46.767Z,100110.52
2019-06-27T00:04:17.178Z,100110.00
2019-06-27T00:06:47.225Z,100114.95
2019-06-27T00:09:17.784Z,100121.34
2019-06-27T00:11:49.204Z,100117.41
2019-06-27T00:14:20.071Z,100129.92
2019-06-27T00:16:50.070Z,100038.79
2019-06-27T00:19:23.563Z,100116.78
2019-06-27T00:21:53.827Z,100123.69
2019-06-27T00:24:23.745Z,100131.98
2019-06-27T00:26:57.438Z,100141.05
2019-06-27T00:29:25.666Z,100145.42
2019-06-27T00:31:55.574Z,100145.56
2019-06-27T00:34:25.516Z,100147.81
2019-06-27T00:36:55.473Z,100137.48
2019-06-27T00:39:25.791Z,100137.81
2019-06-27T00:41:57.136Z,100149.72
2019-06-27T00:44:26.954Z,100142.61
2019-06-27T00:46:56.883Z,100141.86
2019-06-27T00:49:27.155Z,100141.92
2019-06-27T00:51:57.824Z,100144.92
2019-06-27T00:54:28.045Z,100153.02
2019-06-27T00:57:12.955Z,100151.73
2019-06-27T00:59:30.723Z,100148.00
2019-06-27T01:02:01.052Z,100150.45
2019-06-27T01:04:30.911Z,100149.11
2019-06-27T01:07:00.792Z,100160.67
2019-06-27T01:09:31.237Z,100159.97
2019-06-27T01:12:02.799Z,100159.75
2019-06-27T01:14:32.706Z,100165.06
2019-06-27T01:17:02.568Z,100162.92
2019-06-27T01:19:33.410Z,100162.94
2019-06-27T01:22:03.694Z,100173.95
2019-06-27T01:24:33.530Z,100171.94
2019-06-27T01:27:03.553Z,100166.13
2019-06-27T01:29:33.504Z,100177.39
2019-06-27T01:32:03.668Z,100166.49
2019-06-27T01:34:33.860Z,100164.86
2019-06-27T01:37:04.475Z,100167.30
2019-06-27T01:39:34.313Z,100167.56
2019-06-27T01:42:04.418Z,100167.86
2019-06-27T01:45:05.226Z,100170.30
2019-06-27T01:47:35.367Z,100173.54
2019-06-27T01:50:05.665Z,100174.84
2019-06-27T01:52:35.633Z,100171.66
2019-06-27T01:55:06.962Z,100170.88
2019-06-27T01:57:46.730Z,100174.09
2019-06-27T02:00:13.039Z,100175.19
2019-06-27T02:02:44.860Z,100189.39
2019-06-27T02:05:15.057Z,100183.28
2019-06-27T02:07:45.077Z,100182.99
2019-06-27T02:10:15.507Z,100176.86
2019-06-27T02:12:45.509Z,100183.55
2019-06-27T02:15:17.047Z,100177.44
2019-06-27T02:17:47.116Z,100176.37
2019-06-27T02:20:17.644Z,100165.97
2019-06-27T02:22:47.839Z,100172.11
2019-06-27T02:25:18.298Z,100165.44
2019-06-27T02:28:02.639Z,100175.85
2019-06-27T02:30:29.208Z,100177.19
2019-06-27T02:32:59.022Z,100178.51
2019-06-27T02:35:29.367Z,100183.31
2019-06-27T02:37:59.468Z,100183.33
2019-06-27T02:40:29.290Z,100182.25
2019-06-27T02:42:59.111Z,100180.66
2019-06-27T02:45:29.202Z,100196.42
2019-06-27T02:47:58.985Z,100198.00
2019-06-27T02:50:28.820Z,100208.16
2019-06-27T02:52:58.824Z,100200.39
2019-06-27T02:55:28.731Z,100204.95
2019-06-27T02:57:58.922Z,100106.39
2019-06-27T03:00:28.833Z,100207.88
2019-06-27T03:02:58.700Z,100206.80
2019-06-27T03:05:28.734Z,100207.06
2019-06-27T03:07:58.528Z,100204.13
2019-06-27T03:10:28.461Z,100195.05
2019-06-27T03:12:58.353Z,100208.67
2019-06-27T03:15:28.281Z,100210.27
2019-06-27T03:17:58.809Z,100212.38
2019-06-27T03:20:28.792Z,100207.33
2019-06-27T03:22:58.685Z,100213.70
2019-06-27T03:25:28.766Z,100219.02
2019-06-27T03:27:58.602Z,100224.34
2019-06-27T03:30:28.507Z,100219.22
2019-06-27T03:32:58.323Z,100211.20
2019-06-27T03:35:28.471Z,100220.27
2019-06-27T03:37:58.662Z,100226.13
2019-06-27T03:40:28.745Z,100223.76
2019-06-27T03:42:58.730Z,100233.34
2019-06-27T03:45:28.737Z,100228.55
2019-06-27T03:47:58.793Z,100224.27
2019-06-27T03:50:28.854Z,100229.88
2019-06-27T03:52:58.623Z,100230.67
2019-06-27T03:55:28.665Z,100234.41
2019-06-27T03:57:58.706Z,100235.98
2019-06-27T04:00:33.177Z,100234.92
2019-06-27T04:03:03.336Z,100236.27
2019-06-27T04:05:33.490Z,100229.55
2019-06-27T04:08:03.746Z,100230.63
2019-06-27T04:10:33.651Z,100235.89
2019-06-27T04:13:04.342Z,100234.02
2019-06-27T04:15:35.022Z,100233.52
2019-06-27T04:18:08.763Z,100233.77
2019-06-27T04:20:38.652Z,100233.77
2019-06-27T04:23:08.868Z,100232.19
2019-06-27T04:25:38.880Z,100232.41
2019-06-27T04:28:09.030Z,100237.73
2019-06-27T04:30:39.473Z,100234.54
2019-06-27T04:33:09.612Z,100240.63
2019-06-27T04:35:39.895Z,100251.17
2019-06-27T04:38:10.167Z,100245.85
2019-06-27T04:40:40.083Z,100254.65
2019-06-27T04:43:10.102Z,100260.78
2019-06-27T04:45:40.986Z,100266.64
2019-06-27T04:48:10.942Z,100268.25
2019-06-27T04:50:41.007Z,100270.94
2019-06-27T04:53:11.459Z,100267.97
2019-06-27T04:55:41.296Z,100266.39
2019-06-27T04:58:11.661Z,100273.83
2019-06-27T05:00:42.170Z,100269.24
2019-06-27T05:03:12.112Z,100263.36
2019-06-27T05:05:42.321Z,100257.50
2019-06-27T05:08:14.550Z,100255.64
2019-06-27T05:10:44.186Z,100258.61
2019-06-27T05:13:14.894Z,100267.38
2019-06-27T05:15:45.339Z,100270.33
2019-06-27T05:18:16.655Z,100276.12
2019-06-27T05:20:47.851Z,100269.73
2019-06-27T05:23:18.630Z,100265.83
2019-06-27T05:25:49.018Z,100271.19
2019-06-27T05:28:19.075Z,100280.84
2019-06-27T05:30:51.874Z,100279.54
2019-06-27T05:33:24.396Z,100195.83
2019-06-27T05:35:55.560Z,100277.25
2019-06-27T05:38:26.236Z,100286.30
2019-06-27T05:40:56.590Z,100286.27
2019-06-27T05:43:26.892Z,100290.25
2019-06-27T05:45:57.383Z,100287.05
2019-06-27T05:48:27.428Z,100288.45
2019-06-27T05:50:57.235Z,100290.90
2019-06-27T05:53:27.714Z,100295.44
2019-06-27T05:55:58.069Z,100290.09
2019-06-27T05:58:28.433Z,100294.11
2019-06-27T06:00:59.794Z,100296.56
2019-06-27T06:03:30.048Z,100290.72
2019-06-27T06:06:00.115Z,100288.58
2019-06-27T06:08:30.658Z,100302.47
2019-06-27T06:11:00.655Z,100300.53
2019-06-27T06:13:30.730Z,100297.06
2019-06-27T06:16:01.386Z,100300.35
2019-06-27T06:18:31.443Z,100300.41
2019-06-27T06:21:01.501Z,100301.78
2019-06-27T06:23:31.442Z,100297.56
2019-06-27T06:26:01.438Z,100300.80
2019-06-27T06:28:31.772Z,100299.47
2019-06-27T06:31:01.798Z,100298.94
2019-06-27T06:33:31.895Z,100298.44
2019-06-27T06:36:02.389Z,100298.97
2019-06-27T06:38:32.360Z,100302.97
2019-06-27T06:41:02.268Z,100307.81
2019-06-27T06:43:32.607Z,100299.53
2019-06-27T06:46:02.706Z,100308.60
2019-06-27T06:48:32.599Z,100300.59
2019-06-27T06:51:02.529Z,100300.03
2019-06-27T06:53:32.688Z,100304.83
2019-06-27T06:56:03.091Z,100307.23
2019-06-27T06:58:32.983Z,100309.61
2019-06-27T07:01:03.341Z,100315.75
2019-06-27T07:03:33.244Z,100312.27
2019-06-27T07:06:03.404Z,100307.98
2019-06-27T07:08:33.408Z,100319.20
2019-06-27T07:11:03.461Z,100317.57
2019-06-27T07:13:33.594Z,100313.30
2019-06-27T07:16:03.828Z,100316.20
2019-06-27T07:18:33.634Z,100320.18
2019-06-27T07:21:04.007Z,100320.69
2019-06-27T07:23:33.994Z,100325.21
2019-06-27T07:26:03.890Z,100325.21
2019-06-27T07:28:33.740Z,100322.27
2019-06-27T07:31:16.777Z,100320.38
2019-06-27T07:33:35.567Z,100314.91
2019-06-27T07:36:05.501Z,100316.67
2019-06-27T07:38:35.344Z,100315.03
2019-06-27T07:41:05.238Z,100311.99
2019-06-27T07:43:35.168Z,100312.44
2019-06-27T07:46:05.705Z,100316.08
2019-06-27T07:48:36.548Z,100311.34
2019-06-27T07:51:06.622Z,100315.97
2019-06-27T07:53:36.616Z,100319.63
2019-06-27T07:56:06.619Z,100317.16
2019-06-27T07:58:36.550Z,100315.81
2019-06-27T08:01:07.038Z,100321.17
2019-06-27T08:03:37.045Z,100318.22
2019-06-27T08:06:07.084Z,100312.44
2019-06-27T08:08:37.275Z,100314.53
2019-06-27T08:11:07.955Z,100312.32
2019-06-27T08:13:38.045Z,100314.24
2019-06-27T08:16:14.382Z,100304.81
2019-06-27T08:18:47.101Z,100225.03
2019-06-27T08:21:18.669Z,100308.05
2019-06-27T08:23:49.422Z,100310.57
2019-06-27T08:26:20.956Z,100311.34
2019-06-27T08:28:52.267Z,100311.16
2019-06-27T08:31:23.017Z,100306.57
2019-06-27T08:33:52.897Z,100308.44
2019-06-27T08:36:22.871Z,100305.52
2019-06-27T08:38:53.083Z,100300.96
2019-06-27T08:41:23.732Z,100299.69
2019-06-27T08:43:53.618Z,100289.03
2019-06-27T08:46:29.696Z,100290.80
2019-06-27T08:48:58.506Z,100282.64
2019-06-27T08:51:28.412Z,100283.19
2019-06-27T08:53:58.367Z,100278.88
2019-06-27T08:56:29.089Z,100283.31
2019-06-27T08:58:59.066Z,100277.87
2019-06-27T09:01:28.844Z,100276.77
2019-06-27T09:03:58.804Z,100268.17
2019-06-27T09:06:28.643Z,100261.63
2019-06-27T09:08:58.707Z,100261.29
2019-06-27T09:11:29.163Z,100265.72
2019-06-27T09:13:59.304Z,100269.41
2019-06-27T09:16:29.771Z,100266.86
2019-06-27T09:18:59.797Z,100262.48
2019-06-27T09:21:29.962Z,100263.03
2019-06-27T09:24:00.092Z,100260.95
2019-06-27T09:26:30.268Z,100259.80
2019-06-27T09:29:01.485Z,100252.40
2019-06-27T09:31:31.830Z,100250.34
2019-06-27T09:34:02.024Z,100243.14
2019-06-27T09:36:32.190Z,100243.33
2019-06-27T09:39:03.955Z,100240.50
2019-06-27T09:41:34.057Z,100233.56
2019-06-27T09:44:04.290Z,100232.44
2019-06-27T09:46:35.192Z,100230.84
2019-06-27T09:49:06.939Z,100232.55
2019-06-27T09:51:37.156Z,100232.19
2019-06-27T09:54:07.550Z,100230.29
2019-06-27T09:56:38.717Z,100230.82
2019-06-27T09:59:09.076Z,100240.58
2019-06-27T10:01:39.090Z,100236.77
2019-06-27T10:04:09.288Z,100226.53
2019-06-27T10:06:39.740Z,100233.14
2019-06-27T10:09:09.850Z,100227.69
2019-06-27T10:11:39.851Z,100231.52
2019-06-27T10:14:10.261Z,100227.60
2019-06-27T10:16:40.210Z,100224.38
2019-06-27T10:19:10.105Z,100232.34
2019-06-27T10:21:40.665Z,100228.92
2019-06-27T10:24:12.142Z,100223.72
2019-06-27T10:26:43.197Z,100225.84
2019-06-27T10:29:14.132Z,100216.03
2019-06-27T10:31:44.509Z,100217.03
2019-06-27T10:34:14.540Z,100143.70
2019-06-27T10:36:46.372Z,100215.71
2019-06-27T10:39:17.008Z,100222.09
2019-06-27T10:41:47.905Z,100213.09
2019-06-27T10:44:18.850Z,100219.59
2019-06-27T10:46:49.223Z,100216.27
2019-06-27T10:49:20.787Z,100209.60
2019-06-27T10:51:52.576Z,100205.23
2019-06-27T10:54:23.619Z,100202.87
2019-06-27T10:56:54.197Z,100207.61
2019-06-27T10:59:24.638Z,100208.59
2019-06-27T11:01:54.997Z,100209.11
2019-06-27T11:04:24.949Z,100203.20
2019-06-27T11:06:54.774Z,100197.42
2019-06-27T11:09:25.579Z,100192.87
2019-06-27T11:11:55.604Z,100199.63
2019-06-27T11:14:33.829Z,100196.53
2019-06-27T11:17:05.525Z,100194.44
2019-06-27T11:19:51.502Z,100206.80
2019-06-27T11:22:09.366Z,100205.05
2019-06-27T11:24:40.027Z,100201.72
2019-06-27T11:27:10.763Z,100200.33
2019-06-27T11:29:40.805Z,100195.28
2019-06-27T11:32:11.085Z,100197.34
2019-06-27T11:34:43.165Z,100188.28
2019-06-27T11:37:15.253Z,100189.37
2019-06-27T11:39:46.799Z,100194.55
2019-06-27T11:42:18.206Z,100196.03
2019-06-27T11:44:49.311Z,100198.89
2019-06-27T11:47:20.371Z,100188.38
2019-06-27T11:49:52.500Z,100188.58
2019-06-27T11:52:26.297Z,100188.88
2019-06-27T11:54:55.435Z,100021.24
2019-06-27T11:57:25.780Z,100189.83
2019-06-27T11:59:56.918Z,100189.63
2019-06-27T12:02:27.094Z,100184.33
2019-06-27T12:04:58.316Z,100190.53
2019-06-27T12:07:29.562Z,100182.39
2019-06-27T12:10:00.880Z,100181.62
2019-06-27T12:12:31.410Z,100172.48
2019-06-27T12:15:03.268Z,100181.39
2019-06-27T12:17:34.398Z,100181.22
2019-06-27T12:20:09.567Z,100183.86
2019-06-27T12:22:41.272Z,100162.66
2019-06-27T12:25:13.264Z,100166.05
2019-06-27T12:27:43.280Z,100171.45
2019-06-27T12:30:16.664Z,100166.85
2019-06-27T12:32:52.273Z,100160.57
2019-06-27T12:35:23.394Z,100162.33
2019-06-27T12:37:56.772Z,100160.57
2019-06-27T12:40:27.444Z,100164.00
2019-06-27T12:42:58.363Z,100158.70
2019-06-27T12:45:28.956Z,100085.52
2019-06-27T12:48:06.482Z,100159.53
2019-06-27T12:50:32.554Z,100153.33
2019-06-27T12:53:03.316Z,100148.44
2019-06-27T12:55:33.603Z,100144.42
2019-06-27T12:58:04.923Z,100145.35
2019-06-27T13:00:35.847Z,100148.00
2019-06-27T13:03:12.391Z,100132.80
2019-06-27T13:05:42.821Z,100065.94
2019-06-27T13:08:13.106Z,100130.48
2019-06-27T13:10:43.640Z,100142.41
2019-06-27T13:13:14.011Z,100133.94
2019-06-27T13:15:44.203Z,100128.03
2019-06-27T13:18:14.603Z,100135.41
2019-06-27T13:20:57.451Z,100133.73
2019-06-27T13:23:16.707Z,100126.23
2019-06-27T13:25:47.299Z,100137.72
2019-06-27T13:28:19.591Z,100141.10
2019-06-27T13:30:49.784Z,100132.41
2019-06-27T13:33:20.843Z,100123.48
2019-06-27T13:35:51.474Z,100121.83
2019-06-27T13:38:22.484Z,100113.78
2019-06-27T13:40:52.921Z,100119.97
2019-06-27T13:43:30.352Z,100108.97
2019-06-27T13:46:02.078Z,100113.91
2019-06-27T13:48:32.284Z,100108.59
2019-06-27T13:51:17.285Z,100115.04
2019-06-27T13:53:47.934Z,100118.33
2019-06-27T13:56:19.407Z,100101.92
2019-06-27T13:58:50.074Z,100107.24
2019-06-27T14:01:23.070Z,100104.91
2019-06-27T14:03:53.450Z,100104.44
2019-06-27T14:06:27.486Z,100099.19
2019-06-27T14:09:06.060Z,100104.79
2019-06-27T14:11:42.866Z,100111.76
2019-06-27T14:14:15.013Z,100100.75
2019-06-27T14:16:47.123Z,100091.21
2019-06-27T14:19:18.046Z,100105.30
2019-06-27T14:21:48.801Z,100089.19
2019-06-27T14:24:20.408Z,100087.23
2019-06-27T14:26:50.835Z,100081.91
2019-06-27T14:29:30.486Z,100078.56
2019-06-27T14:32:00.978Z,100085.13
2019-06-27T14:34:31.439Z,100085.64
2019-06-27T14:37:02.120Z,100085.75
2019-06-27T14:39:32.430Z,100077.11
2019-06-27T14:42:06.089Z,100082.80
2019-06-27T14:44:37.284Z,100016.13
2019-06-27T14:47:08.119Z,100072.15
2019-06-27T14:49:48.981Z,100086.07
2019-06-27T14:52:20.130Z,100005.93
2019-06-27T14:54:51.192Z,100084.59
2019-06-27T14:57:36.559Z,100002.80
2019-06-27T15:00:16.642Z,100087.92
2019-06-27T15:02:48.266Z,100097.05
2019-06-27T15:05:32.088Z,100077.80
2019-06-27T15:07:52.386Z,100076.27
2019-06-27T15:10:38.199Z,100071.27
2019-06-27T15:13:10.100Z,100085.77
2019-06-27T15:15:42.081Z,100082.95
2019-06-27T15:18:16.520Z,100070.37
2019-06-27T15:20:47.633Z,100058.09
2019-06-27T15:23:19.054Z,100057.11
2019-06-27T15:25:55.054Z,100055.18
2019-06-27T15:28:25.901Z,100063.59
2019-06-27T15:30:57.748Z,100054.85
2019-06-27T15:33:30.081Z,100053.13
2019-06-27T15:36:00.822Z,100049.89
2019-06-27T15:38:31.550Z,100057.67
2019-06-27T15:41:03.593Z,100056.89
2019-06-27T15:43:34.143Z,100056.58
2019-06-27T15:46:05.828Z,100061.95
2019-06-27T15:48:37.380Z,100056.53
2019-06-27T15:51:07.785Z,100064.31
2019-06-27T15:53:38.046Z,100054.80
2019-06-27T15:56:09.092Z,100052.56
2019-06-27T15:58:40.260Z,100042.17
2019-06-27T16:01:11.276Z,100049.39
2019-06-27T16:03:42.073Z,100063.08
2019-06-27T16:06:21.726Z,100045.55
2019-06-27T16:08:57.273Z,100043.97
2019-06-27T16:11:27.998Z,100035.83
2019-06-27T16:13:59.422Z,100043.41
2019-06-27T16:16:29.603Z,100042.73
2019-06-27T16:19:07.526Z,100035.72
2019-06-27T16:21:38.338Z,100062.95
2019-06-27T16:24:09.794Z,100027.35
2019-06-27T16:26:39.726Z,100033.22
2019-06-27T16:29:10.544Z,100035.48
2019-06-27T16:31:40.491Z,100048.25
2019-06-27T16:34:11.154Z,100032.44
2019-06-27T16:36:41.687Z,99960.35
2019-06-27T16:39:12.055Z,100035.73
2019-06-27T16:41:42.012Z,100029.27
2019-06-27T16:44:12.310Z,100045.45
2019-06-27T16:46:43.486Z,100038.89
2019-06-27T16:49:14.614Z,100040.91
2019-06-27T16:51:48.332Z,100045.00
2019-06-27T16:54:18.719Z,100046.25
2019-06-27T16:56:51.562Z,99931.86
2019-06-27T16:59:23.136Z,100045.23
2019-06-27T17:01:54.569Z,100048.25
2019-06-27T17:04:25.211Z,100055.61
2019-06-27T17:06:57.725Z,100051.30
2019-06-27T17:09:31.335Z,100053.12
2019-06-27T17:12:02.002Z,100052.20
2019-06-27T17:14:32.178Z,100052.90
2019-06-27T17:17:02.616Z,100055.88
2019-06-27T17:19:32.988Z,99976.55
2019-06-27T17:22:03.139Z,100053.85
2019-06-27T17:24:35.059Z,100057.50
2019-06-27T17:27:05.589Z,100057.16
2019-06-27T17:29:35.617Z,100053.38
2019-06-27T17:32:06.618Z,100076.88
2019-06-27T17:34:37.082Z,100063.73
2019-06-27T17:37:08.126Z,100061.95
2019-06-27T17:39:38.236Z,100067.95
2019-06-27T17:42:08.582Z,100073.48
2019-06-27T17:44:38.595Z,100071.45
2019-06-27T17:47:08.526Z,100066.92
2019-06-27T17:49:39.794Z,100074.32
2019-06-27T17:52:10.204Z,100075.33
2019-06-27T17:54:40.880Z,100077.89
2019-06-27T17:57:15.876Z,100068.13
2019-06-27T17:59:50.301Z,100065.91
2019-06-27T18:02:22.466Z,100077.53
2019-06-27T18:04:52.962Z,100074.23
2019-06-27T18:07:26.847Z,100070.61
2019-06-27T18:10:00.858Z,99992.75
2019-06-27T18:12:33.709Z,100086.20
2019-06-27T18:15:08.646Z,100069.02
2019-06-27T18:17:41.202Z,100075.20
2019-06-27T18:20:21.325Z,100060.52
2019-06-27T18:22:53.225Z,100059.76
2019-06-27T18:25:24.503Z,100066.73
2019-06-27T18:27:55.465Z,100067.82
2019-06-27T18:30:26.033Z,100073.66
2019-06-27T18:32:55.982Z,100065.19
2019-06-27T18:35:27.369Z,100062.99
2019-06-27T18:37:58.612Z,100066.16
2019-06-27T18:40:29.616Z,100063.16
2019-06-27T18:43:04.457Z,100062.38
2019-06-27T18:45:40.577Z,100072.66
2019-06-27T18:48:12.532Z,100062.05
2019-06-27T18:50:44.460Z,99980.86
2019-06-27T18:53:14.849Z,100067.57
2019-06-27T18:55:45.980Z,100063.30
2019-06-27T18:58:16.719Z,100063.03
2019-06-27T19:01:03.884Z,100066.77
2019-06-27T19:03:42.163Z,100066.12
2019-06-27T19:06:13.102Z,100027.50
2019-06-27T19:08:44.145Z,100071.80
2019-06-27T19:11:16.914Z,100079.92
2019-06-27T19:13:48.446Z,100079.98
2019-06-27T19:16:18.783Z,100084.43
2019-06-27T19:18:55.118Z,100090.70
2019-06-27T19:21:52.336Z,99995.81
2019-06-27T19:24:35.758Z,100096.61
2019-06-27T19:27:11.855Z,100091.45
2019-06-27T19:29:47.351Z,100100.55
2019-06-27T19:32:19.975Z,100104.61
2019-06-27T19:34:59.023Z,100103.36
2019-06-27T19:37:41.047Z,100108.77
2019-06-27T19:40:15.293Z,100088.34
2019-06-27T19:42:46.589Z,100121.75
2019-06-27T19:45:23.969Z,100120.95
2019-06-27T19:47:54.215Z,100124.58
2019-06-27T19:50:34.866Z,100126.52
2019-06-27T19:53:11.075Z,100130.53
2019-06-27T19:55:42.719Z,100135.88
2019-06-27T19:58:14.863Z,100145.13
2019-06-27T20:00:45.921Z,100150.76
2019-06-27T20:03:17.753Z,100151.60
2019-06-27T20:05:48.065Z,100154.55
2019-06-27T20:08:20.218Z,100163.14
2019-06-27T20:10:51.151Z,100162.34
2019-06-27T20:13:21.610Z,100160.24
2019-06-27T20:15:51.979Z,100173.69
2019-06-27T20:18:23.935Z,100167.27
2019-06-27T20:20:55.784Z,100075.86
2019-06-27T20:23:26.465Z,100074.86
2019-06-27T20:25:59.093Z,100169.25
2019-06-27T20:28:29.551Z,100173.80
2019-06-27T20:31:05.006Z,100183.98
2019-06-27T20:33:39.719Z,100173.58
2019-06-27T20:36:11.521Z,100182.98
2019-06-27T20:38:43.728Z,100186.46
2019-06-27T20:41:17.095Z,100181.93
2019-06-27T20:44:08.147Z,100187.84
2019-06-27T20:47:06.062Z,100190.54
2019-06-27T20:49:37.155Z,100187.34
2019-06-27T20:52:11.399Z,100199.09
2019-06-27T20:54:44.483Z,100191.36
2019-06-27T20:57:16.586Z,100188.95
2019-06-27T20:59:50.147Z,100197.76
2019-06-27T21:02:28.561Z,100204.95
2019-06-27T21:05:05.052Z,100198.00
2019-06-27T21:07:37.256Z,100206.80
2019-06-27T21:10:12.066Z,100207.34
2019-06-27T21:12:48.061Z,100204.69
2019-06-27T21:15:20.917Z,100207.89
2019-06-27T21:17:55.939Z,100208.16
2019-06-27T21:20:30.333Z,100124.55
2019-06-27T21:23:06.453Z,100217.46
2019-06-27T21:25:41.030Z,100223.09
2019-06-27T21:28:16.439Z,100223.32
2019-06-27T21:31:03.747Z,100215.59
2019-06-27T21:33:35.471Z,100215.05
2019-06-27T21:36:07.350Z,100219.02
2019-06-27T21:38:40.071Z,100218.49
2019-06-27T21:41:13.593Z,100219.52
2019-06-27T21:43:44.638Z,100221.08
2019-06-27T21:46:16.019Z,100230.93
2019-06-27T21:48:50.071Z,100229.31
2019-06-27T21:51:21.641Z,100233.30
2019-06-27T21:53:55.005Z,100234.30
2019-06-27T21:56:26.523Z,100232.70
2019-06-27T21:59:00.151Z,100234.54
2019-06-27T22:01:31.392Z,100222.98
2019-06-27T22:04:06.068Z,100233.08
2019-06-27T22:06:41.553Z,100233.64
2019-06-27T22:09:23.932Z,100235.97
2019-06-27T22:11:44.963Z,100239.88
2019-06-27T22:14:15.966Z,100238.24
2019-06-27T22:16:48.483Z,100241.93
2019-06-27T22:19:26.277Z,100164.79
2019-06-27T22:21:59.899Z,100250.37
2019-06-27T22:24:30.765Z,100255.14
2019-06-27T22:27:01.947Z,100257.25
2019-06-27T22:29:32.507Z,100255.59
2019-06-27T22:32:03.136Z,100253.15
2019-06-27T22:34:33.578Z,100262.73
2019-06-27T22:37:04.833Z,100261.83
2019-06-27T22:39:53.683Z,100266.05
2019-06-27T22:42:46.545Z,100256.41
2019-06-27T22:45:36.679Z,100271.25
2019-06-27T22:48:13.077Z,100270.96
2019-06-27T22:51:05.693Z,100263.14
2019-06-27T22:53:45.308Z,100265.19
2019-06-27T22:56:18.847Z,100262.16
2019-06-27T22:58:50.500Z,100267.66
2019-06-27T23:01:22.495Z,100268.94
2019-06-27T23:03:54.412Z,100270.50
2019-06-27T23:06:33.471Z,100274.73
2019-06-27T23:09:05.531Z,100276.80
2019-06-27T23:11:37.699Z,100284.21
2019-06-27T23:14:07.831Z,100269.20
2019-06-27T23:16:41.680Z,100271.00
2019-06-27T23:19:12.165Z,100265.10
2019-06-27T23:21:42.925Z,100268.17
2019-06-27T23:24:19.703Z,100268.09
2019-06-27T23:26:50.390Z,100267.98
2019-06-27T23:29:21.688Z,100263.08
2019-06-27T23:31:51.829Z,100269.19
2019-06-27T23:34:24.662Z,100269.34
2019-06-27T23:36:55.885Z,100273.59
2019-06-27T23:39:26.080Z,100261.29
2019-06-27T23:41:59.481Z,100263.32
2019-06-27T23:44:29.375Z,100263.83
2019-06-27T23:47:00.229Z,100258.39
2019-06-27T23:49:30.784Z,100261.55
2019-06-27T23:52:01.062Z,100257.52
2019-06-27T23:54:31.660Z,100258.55
2019-06-27T23:57:02.330Z,100211.11
2019-06-27T23:59:32.208Z,100260.61
